Raleigh County Memorial Airport Beckley US
ICAO: KBKW
IATA: BKW
Category: Medium
Scheduled Services: Yes

Elevation: 2504 ft
TransAlt. 18000 ft.

Airport Communications:
CHARLESTON APP/DEP:118.95
ASOS:121.55
AWOS 3:124.65
ELKINS RDO:117.7
CTAF/UNICOM:123

KBKW Zoom In..

If you have problems with the map follow the link
https://www.worldairports.se/pages/airport.php?
ICAO=KBKW

Runways:

(A) RW 01 length 6750 ft width 150 ft
---- / hdg 13

(B) RW 10 length 5001 ft width 100 ft
---- / hdg 103

(C) RW 19 length 6750 ft width 150 ft
ILS 111.70 / hdg 193

(D) RW 28 length 5001 ft width 100 ft
---- / hdg 283

Location; KBKW
Day. 16 / Time. 02.58 Zulu
* Altimeter: 29.86
* Temperature: 00° c. 32°f.
* Wind from: 290° Speed 13 kn with Gusts up to 28 kn.
Dewpoint: -02° c.
Visibility: 1 m.
Clouds: Few 200 ft.
Clouds: Scattered 900 ft.
Clouds: Overcast 1800 ft.
Conditions: Light Snow.Conditions: Mist.

KBKW 160258Z AUTO 29013G28KT 1 1/4SM -SN BR FEW002 SCT009 OVC018 00/M02 A2986 RMK AO2 CIG 012 RWY19 P0000 T00001022 TSNO


Wind From 290°
Speed 13 kn.

 
 
jpsmedia.com for Web Design worldairports.se 2018   terms of use